Ten Mile, Mississippi
Current Conditions -  °F | °C
As of 2:53 AM on Friday 28 Nov 2014 (Local Time) from KGPT Reporting Station
Clear Clear  
Wind Chill: 33°   Ceiling: Unl
Heat Index: 37°   Visibility: 10mi
Dew Point: 31°   Wind: 5mph
Humidity: 79%   Direction: 20°NNE
Pressure: 30.42"   Gusts: NA
Location:  30.7239°N, 89.1669°W
Report Text: KGPT 280853Z AUTO 02004KT 10SM CLR 03/M01 A3042 RMK AO2 SLP300 6//// T00281006 58005 PNO $
Loading
Personal Weather Stations






























Interactive Weather Map New forecast layout! Learn more

10-Day Weather Forecast

Advertisements
Track Severe Weather on mobile